Time;durP1;ratioP1;P1;durP2;ratioP2;P2;SDS_P1;SDS_P2;PMS_P1;PMS_P2;Temp;Humidity;BMP_temperature;BMP_pressure;BME280_temperature;BME280_humidity;BME280_pressure;Samples;Min_cycle;Max_cycle;Signal;HPM_P1;HPM_P2
2022/04/21 00:04:26;;;;;;;6.50;5.90;;;11.70;20.40;;;;;;10390209;28;20316;-73
2022/04/21 00:09:29;;;;;;;5.67;5.17;;;11.60;20.30;;;;;;10387756;28;20718;-74
2022/04/21 00:14:33;;;;;;;6.07;5.00;;;11.40;20.20;;;;;;10384702;28;20234;-73
2022/04/21 00:19:38;;;;;;;5.83;5.23;;;11.30;20.30;;;;;;10388316;28;21005;-75
2022/04/21 00:24:41;;;;;;;4.77;4.37;;;11.30;20.80;;;;;;10389576;28;20230;-73
2022/04/21 00:29:45;;;;;;;5.07;4.67;;;11.20;20.50;;;;;;10364021;28;20249;-73
2022/04/21 00:34:50;;;;;;;5.33;4.83;;;11.20;20.60;;;;;;10389109;28;20694;-73
2022/04/21 00:39:53;;;;;;;5.00;4.60;;;11.20;20.90;;;;;;10388566;28;20236;-73
2022/04/21 00:44:56;;;;;;;4.87;4.37;;;11.20;20.70;;;;;;10388065;28;20341;-74
2022/04/21 00:50:01;;;;;;;5.17;4.77;;;11.20;20.70;;;;;;10394372;28;20214;-73
2022/04/21 00:55:06;;;;;;;5.43;4.93;;;11.20;21.00;;;;;;10386313;28;20221;-73
2022/04/21 01:00:11;;;;;;;5.53;5.00;;;11.10;21.00;;;;;;10393437;28;20232;-73
2022/04/21 01:05:25;;;;;;;4.60;4.20;;;11.10;20.90;;;;;;10388802;28;20236;-73
2022/04/21 01:10:30;;;;;;;5.60;5.10;;;11.00;21.10;;;;;;10392045;28;20309;-73
2022/04/21 01:15:34;;;;;;;4.70;4.30;;;10.90;20.90;;;;;;10390621;28;20226;-73
2022/04/21 01:20:38;;;;;;;6.40;5.23;;;10.90;20.90;;;;;;10384290;28;20221;-75
2022/04/21 01:25:42;;;;;;;4.90;4.50;;;10.80;21.10;;;;;;10393828;28;20225;-73
2022/04/21 01:30:45;;;;;;;4.33;3.93;;;10.70;20.90;;;;;;10379188;28;20249;-74
2022/04/21 01:35:50;;;;;;;4.47;4.07;;;10.50;21.10;;;;;;10388144;28;20225;-73
2022/04/21 01:41:11;;;;;;;5.70;4.73;;;10.40;21.40;;;;;;10383062;28;20222;-73
2022/04/21 01:46:15;;;;;;;5.33;4.80;;;10.30;21.40;;;;;;10386345;28;20226;-73
2022/04/21 01:51:19;;;;;;;4.50;4.10;;;10.30;21.50;;;;;;10381529;28;20229;-75
2022/04/21 01:56:23;;;;;;;5.60;5.10;;;10.20;21.80;;;;;;10376850;28;20240;-73
2022/04/21 02:01:26;;;;;;;5.13;4.63;;;10.00;21.60;;;;;;10389322;28;20228;-73
2022/04/21 02:06:31;;;;;;;5.60;5.10;;;10.00;21.80;;;;;;10387235;28;20303;-73
2022/04/21 02:11:34;;;;;;;5.23;4.73;;;9.90;22.80;;;;;;10394835;28;20217;-73
2022/04/21 02:16:37;;;;;;;4.80;4.37;;;9.90;22.80;;;;;;10378018;28;20891;-73
2022/04/21 02:21:42;;;;;;;5.23;4.83;;;9.70;22.80;;;;;;10387219;28;20236;-75
2022/04/21 02:26:45;;;;;;;5.57;5.17;;;9.70;23.20;;;;;;10375323;28;20221;-73
2022/04/21 02:31:49;;;;;;;5.17;4.67;;;9.60;23.00;;;;;;10388241;28;20221;-73
2022/04/21 02:36:54;;;;;;;4.33;4.00;;;9.60;23.00;;;;;;10381335;28;20234;-73
2022/04/21 02:41:57;;;;;;;4.67;4.27;;;9.50;23.40;;;;;;10388899;28;20231;-73
2022/04/21 02:47:01;;;;;;;5.40;4.90;;;9.50;23.30;;;;;;10400266;28;20304;-73
2022/04/21 02:52:09;;;;;;;4.97;4.57;;;9.50;23.60;;;;;;10394283;28;20305;-73
2022/04/21 02:57:21;;;;;;;6.73;5.47;;;9.60;23.90;;;;;;10393476;28;20225;-74
2022/04/21 03:02:25;;;;;;;6.50;5.33;;;9.60;23.60;;;;;;10396575;28;20229;-73
2022/04/21 03:07:30;;;;;;;5.80;5.30;;;9.60;23.80;;;;;;10406060;28;20226;-75
2022/04/21 03:12:33;;;;;;;5.20;4.70;;;9.60;24.00;;;;;;10392783;28;20218;-73
2022/04/21 03:17:36;;;;;;;5.87;5.27;;;9.60;23.80;;;;;;10391554;28;20313;-73
2022/04/21 03:28:04;;;;;;;5.87;5.30;;;9.70;24.20;;;;;;10399217;28;20230;-73
2022/04/21 03:33:07;;;;;;;5.40;4.93;;;9.70;24.10;;;;;;10399293;28;20230;-73
2022/04/21 03:38:12;;;;;;;5.50;5.00;;;9.80;24.10;;;;;;10395827;28;20240;-73
2022/04/21 03:43:15;;;;;;;6.33;5.80;;;9.80;24.40;;;;;;10395103;28;20881;-73
2022/04/21 03:48:19;;;;;;;5.50;5.00;;;9.80;24.20;;;;;;10390522;28;20291;-74
2022/04/21 03:53:23;;;;;;;5.77;5.27;;;9.90;24.40;;;;;;10399295;28;20234;-73
2022/04/21 03:58:27;;;;;;;5.43;4.87;;;9.90;24.70;;;;;;10382490;28;20578;-73
2022/04/21 04:03:30;;;;;;;5.80;5.30;;;9.90;24.40;;;;;;10389139;28;20218;-73
2022/04/21 04:13:55;;;;;;;5.83;5.33;;;9.90;24.70;;;;;;10387892;28;20251;-74
2022/04/21 04:18:59;;;;;;;5.77;5.27;;;9.90;24.60;;;;;;10394798;28;20316;-73
2022/04/21 04:24:04;;;;;;;5.53;5.13;;;10.00;24.10;;;;;;10387930;28;20316;-74
2022/04/21 04:29:07;;;;;;;6.03;5.53;;;10.00;24.30;;;;;;10387852;28;20229;-73
2022/04/21 04:34:10;;;;;;;5.10;4.70;;;10.00;24.10;;;;;;10386875;28;20328;-74
2022/04/21 04:39:15;;;;;;;6.20;5.70;;;10.00;24.20;;;;;;10379989;28;20240;-76
2022/04/21 04:44:18;;;;;;;6.03;5.53;;;10.00;24.60;;;;;;10386512;28;20596;-74
2022/04/21 04:49:22;;;;;;;5.30;4.87;;;10.00;24.40;;;;;;10383603;28;20233;-74
2022/04/21 04:54:29;;;;;;;7.33;5.47;;;10.00;24.50;;;;;;10386190;28;20237;-74
2022/04/21 04:59:32;;;;;;;6.77;6.17;;;10.00;25.00;;;;;;10380074;28;20615;-74
2022/04/21 05:04:36;;;;;;;6.37;5.77;;;10.10;24.80;;;;;;10376457;28;20727;-74
2022/04/21 05:09:41;;;;;;;7.50;6.03;;;10.10;24.90;;;;;;10381507;28;20230;-74
2022/04/21 05:14:44;;;;;;;6.53;6.03;;;10.20;25.40;;;;;;10381322;28;20249;-74
2022/04/21 05:19:48;;;;;;;7.30;6.10;;;10.20;25.10;;;;;;10380790;28;20240;-74
2022/04/21 05:24:54;;;;;;;6.47;5.70;;;10.30;25.30;;;;;;10381516;28;20229;-73
2022/04/21 05:35:19;;;;;;;6.80;6.20;;;10.40;25.70;;;;;;10383029;28;20276;-74
2022/04/21 05:40:25;;;;;;;7.30;6.60;;;10.40;25.80;;;;;;10383607;28;20241;-74
2022/04/21 05:45:29;;;;;;;6.90;6.20;;;10.40;26.60;;;;;;10378644;28;20234;-75
2022/04/21 05:50:32;;;;;;;6.90;6.30;;;10.50;26.10;;;;;;10379738;28;20222;-72
2022/04/21 05:55:38;;;;;;;7.50;6.90;;;10.60;26.30;;;;;;10364950;28;20773;-72
2022/04/21 06:00:41;;;;;;;8.07;7.03;;;10.60;27.20;;;;;;10372270;28;20762;-74
2022/04/21 06:05:44;;;;;;;8.20;7.50;;;10.70;26.30;;;;;;10375264;28;20224;-72
2022/04/21 06:10:49;;;;;;;7.60;7.00;;;10.80;26.40;;;;;;10374465;28;20225;-72
2022/04/21 06:15:52;;;;;;;7.83;7.20;;;10.80;26.80;;;;;;10372814;28;20695;-75
2022/04/21 06:20:55;;;;;;;7.97;7.07;;;10.90;26.70;;;;;;10380090;28;20234;-78
2022/04/21 06:26:01;;;;;;;8.07;7.47;;;11.10;26.80;;;;;;10379795;28;20625;-78
2022/04/21 06:31:05;;;;;;;8.63;7.83;;;11.20;27.20;;;;;;10380716;28;20222;-77
2022/04/21 06:36:08;;;;;;;7.40;6.80;;;11.30;27.00;;;;;;10378041;28;20575;-77
2022/04/21 06:41:13;;;;;;;8.03;7.33;;;11.40;27.40;;;;;;10385384;28;20226;-78
2022/04/21 06:51:36;;;;;;;8.80;8.10;;;11.70;26.80;;;;;;10384308;28;20250;-78
2022/04/21 06:56:43;;;;;;;8.03;7.33;;;11.80;26.60;;;;;;10383143;28;20237;-79
2022/04/21 07:01:47;;;;;;;8.20;7.50;;;11.90;26.80;;;;;;10389179;28;20230;-80
2022/04/21 07:06:50;;;;;;;8.57;7.87;;;12.00;26.60;;;;;;10394555;28;20233;-80
2022/04/21 07:11:55;;;;;;;8.40;7.63;;;12.10;26.60;;;;;;10383808;28;20300;-79
2022/04/21 07:16:58;;;;;;;8.23;7.53;;;12.20;26.70;;;;;;10391563;28;20321;-79
2022/04/21 07:22:05;;;;;;;8.43;7.73;;;12.30;26.50;;;;;;10389581;28;20696;-79
2022/04/21 07:27:09;;;;;;;8.40;7.70;;;12.50;26.40;;;;;;10388797;28;20705;-79
2022/04/21 07:32:12;;;;;;;13.60;8.67;;;12.60;26.50;;;;;;10388480;28;20225;-78
2022/04/21 07:37:16;;;;;;;8.77;7.97;;;12.70;26.20;;;;;;10386191;28;20234;-79
2022/04/21 07:42:22;;;;;;;8.60;7.90;;;12.90;26.20;;;;;;10384900;28;20318;-79
2022/04/21 07:47:25;;;;;;;8.93;8.23;;;13.00;26.40;;;;;;10384361;28;20292;-79
2022/04/21 07:57:55;;;;;;;8.40;7.60;;;13.30;26.30;;;;;;10376470;28;20320;-78
2022/04/21 08:02:59;;;;;;;9.13;8.33;;;13.50;26.40;;;;;;10380361;28;20765;-78
2022/04/21 08:08:03;;;;;;;9.17;8.10;;;13.70;26.20;;;;;;10378935;28;20229;-78
2022/04/21 08:13:08;;;;;;;8.00;7.30;;;13.90;26.10;;;;;;10387483;28;20229;-77
2022/04/21 08:18:11;;;;;;;9.57;7.30;;;14.10;26.10;;;;;;10383909;28;20707;-78
2022/04/21 08:23:20;;;;;;;8.77;7.70;;;14.30;26.20;;;;;;10387571;28;20225;-78
2022/04/21 08:34:05;;;;;;;7.53;6.73;;;14.90;25.80;;;;;;10377620;28;20682;-75
2022/04/21 08:39:08;;;;;;;10.13;7.90;;;15.20;25.70;;;;;;10379025;28;20710;-74
2022/04/21 08:44:19;;;;;;;7.90;7.23;;;15.50;25.60;;;;;;10379892;28;20575;-74
2022/04/21 08:49:25;;;;;;;8.00;7.30;;;15.80;25.20;;;;;;10375036;28;20589;-76
2022/04/21 08:54:30;;;;;;;7.53;6.93;;;16.00;25.00;;;;;;10373059;28;20229;-75
2022/04/21 08:59:36;;;;;;;7.43;6.63;;;16.30;25.00;;;;;;10386193;28;20226;-80
2022/04/21 09:04:41;;;;;;;8.00;7.30;;;16.50;24.70;;;;;;10381364;28;20233;-80
2022/04/21 09:10:04;;;;;;;7.43;6.83;;;16.70;24.50;;;;;;10378021;28;20277;-77
2022/04/21 09:15:12;;;;;;;7.40;6.80;;;16.90;23.70;;;;;;10382943;28;20229;-74
2022/04/21 09:20:18;;;;;;;7.90;7.30;;;17.10;23.90;;;;;;10372685;28;20240;-74
2022/04/21 09:25:23;;;;;;;7.47;6.87;;;17.30;24.00;;;;;;10371358;28;20240;-73
2022/04/21 09:30:28;;;;;;;7.57;6.97;;;17.50;23.60;;;;;;10372911;28;20817;-73
2022/04/21 09:35:33;;;;;;;7.93;7.33;;;17.60;23.70;;;;;;10371725;28;20237;-74
2022/04/21 09:40:36;;;;;;;7.73;7.13;;;17.80;23.80;;;;;;10375131;28;20225;-73
2022/04/21 09:51:10;;;;;;;7.80;7.20;;;17.80;23.20;;;;;;10373607;28;20233;-74
2022/04/21 09:56:13;;;;;;;7.43;6.73;;;17.80;22.70;;;;;;10369784;28;20598;-80
2022/04/21 10:01:22;;;;;;;6.87;6.30;;;17.80;22.80;;;;;;10379604;28;20214;-80
2022/04/21 10:06:27;;;;;;;6.77;6.13;;;18.00;22.60;;;;;;10374298;28;20234;-80
2022/04/21 10:11:31;;;;;;;7.30;6.70;;;18.10;22.90;;;;;;10378595;28;20232;-80
2022/04/21 10:16:36;;;;;;;6.70;6.20;;;18.20;22.60;;;;;;10378285;28;20232;-73
2022/04/21 10:21:48;;;;;;;6.60;6.03;;;18.30;21.90;;;;;;10374580;28;20304;-74
2022/04/21 10:26:52;;;;;;;6.77;6.17;;;18.40;22.00;;;;;;10378883;28;20230;-80
2022/04/21 10:31:59;;;;;;;7.00;6.27;;;18.50;22.40;;;;;;10382434;28;20235;-80
2022/04/21 10:37:14;;;;;;;6.73;6.23;;;18.70;21.90;;;;;;10380549;28;20228;-79
2022/04/21 10:42:18;;;;;;;6.50;5.90;;;18.90;20.90;;;;;;10378815;28;20226;-79
2022/04/21 10:47:30;;;;;;;6.77;6.27;;;18.90;21.70;;;;;;10380671;28;20242;-79
2022/04/21 10:57:58;;;;;;;6.57;5.93;;;19.10;21.50;;;;;;10375526;28;20992;-74
2022/04/21 11:03:05;;;;;;;6.57;6.07;;;19.10;21.60;;;;;;10374797;28;20225;-75
2022/04/21 11:08:13;;;;;;;6.47;5.97;;;19.20;21.00;;;;;;10370011;28;20230;-74
2022/04/21 11:13:19;;;;;;;6.77;6.27;;;19.30;20.80;;;;;;10370389;28;20225;-74
2022/04/21 11:18:30;;;;;;;6.80;6.30;;;19.40;20.90;;;;;;10374743;28;20709;-74
2022/04/21 11:24:01;;;;;;;6.63;6.13;;;19.40;20.10;;;;;;10372917;28;20321;-74
2022/04/21 11:29:05;;;;;;;6.37;5.93;;;19.50;20.70;;;;;;10379224;28;20222;-74
2022/04/21 11:34:09;;;;;;;6.60;6.10;;;19.60;20.70;;;;;;10377736;28;20729;-74
2022/04/21 11:39:15;;;;;;;7.07;6.40;;;19.60;20.20;;;;;;10377071;28;20221;-74
2022/04/21 11:44:22;;;;;;;7.90;7.20;;;19.50;20.20;;;;;;10376945;28;20709;-75
2022/04/21 11:49:27;;;;;;;7.20;6.53;;;19.50;20.00;;;;;;10373287;28;20230;-75
2022/04/21 11:54:31;;;;;;;6.60;6.10;;;19.50;20.30;;;;;;10375907;28;20233;-81
2022/04/21 11:59:36;;;;;;;6.40;5.90;;;19.50;20.30;;;;;;10394625;28;20237;-79
2022/04/21 12:10:01;;;;;;;6.43;5.90;;;19.60;19.90;;;;;;10382603;28;20581;-79
2022/04/21 12:15:05;;;;;;;6.80;6.30;;;19.60;20.30;;;;;;10389728;28;20236;-76
2022/04/21 12:20:10;;;;;;;6.43;5.83;;;19.60;19.90;;;;;;10394363;28;20226;-79
2022/04/21 12:25:13;;;;;;;7.13;6.63;;;19.60;19.70;;;;;;10382856;28;21759;-79
2022/04/21 12:30:17;;;;;;;6.20;5.80;;;19.50;19.90;;;;;;10386601;28;20229;-80
2022/04/21 12:35:43;;;;;;;6.53;6.03;;;19.50;19.90;;;;;;10383911;28;20250;-81
2022/04/21 12:40:47;;;;;;;6.50;6.00;;;19.50;19.10;;;;;;10392311;28;20313;-81
2022/04/21 12:45:51;;;;;;;7.20;6.47;;;19.50;19.90;;;;;;10385453;28;20238;-81
2022/04/21 12:50:57;;;;;;;7.30;6.70;;;19.50;19.90;;;;;;10380398;28;20223;-80
2022/04/21 12:56:09;;;;;;;7.13;6.53;;;19.50;19.60;;;;;;10381138;28;20226;-80
2022/04/21 13:01:12;;;;;;;6.73;6.07;;;19.50;19.60;;;;;;10380166;28;20309;-79
2022/04/21 13:06:26;;;;;;;6.43;5.93;;;19.60;20.00;;;;;;10382120;28;20237;-79
2022/04/21 13:11:29;;;;;;;6.60;6.00;;;19.60;19.50;;;;;;10377301;28;20218;-80
2022/04/21 13:16:33;;;;;;;6.80;6.30;;;19.70;19.80;;;;;;10379727;28;20241;-79
2022/04/21 13:21:56;;;;;;;6.00;5.50;;;19.70;19.70;;;;;;10380296;28;20624;-79
2022/04/21 13:27:00;;;;;;;6.60;6.00;;;19.80;19.40;;;;;;10379657;28;20230;-80
2022/04/21 13:37:27;;;;;;;6.47;5.90;;;19.90;19.40;;;;;;10382480;28;20604;-79
2022/04/21 13:42:30;;;;;;;6.23;5.73;;;19.90;19.00;;;;;;10380457;28;20928;-80
2022/04/21 13:47:35;;;;;;;5.70;5.30;;;20.00;19.30;;;;;;10372098;28;20222;-79
2022/04/21 13:52:41;;;;;;;5.63;5.13;;;20.00;19.30;;;;;;10381214;28;20230;-79
2022/04/21 13:57:45;;;;;;;6.10;5.60;;;20.00;19.00;;;;;;10387855;28;20975;-80
2022/04/21 14:02:48;;;;;;;5.70;5.23;;;20.00;19.30;;;;;;10376351;28;20686;-79
2022/04/21 14:07:53;;;;;;;6.83;6.23;;;20.00;19.10;;;;;;10379680;28;20230;-79
2022/04/21 14:12:56;;;;;;;6.30;5.70;;;20.00;18.70;;;;;;10378484;28;20240;-74
2022/04/21 14:17:59;;;;;;;5.63;5.23;;;19.90;19.00;;;;;;10379003;28;20230;-80
2022/04/21 14:23:04;;;;;;;6.17;5.67;;;19.90;19.30;;;;;;10382965;28;20840;-78
2022/04/21 14:28:07;;;;;;;5.57;5.07;;;20.00;19.00;;;;;;10386659;28;20225;-79
2022/04/21 14:33:10;;;;;;;6.10;5.60;;;19.90;18.90;;;;;;10380660;28;20752;-79
2022/04/21 14:48:57;;;;;;;5.33;4.93;;;19.90;19.00;;;;;;10380422;28;20241;-80
2022/04/21 14:54:02;;;;;;;5.67;5.27;;;19.90;19.00;;;;;;10384837;28;20226;-79
2022/04/21 14:59:06;;;;;;;5.70;5.20;;;20.00;19.30;;;;;;10377815;28;20226;-80
2022/04/21 15:04:09;;;;;;;5.57;5.17;;;20.00;18.80;;;;;;10389751;28;20777;-79
2022/04/21 15:09:14;;;;;;;5.50;5.10;;;20.00;18.70;;;;;;10378825;28;20232;-79
2022/04/21 15:14:18;;;;;;;5.80;5.40;;;19.90;18.40;;;;;;10381693;28;20615;-76
2022/04/21 15:19:21;;;;;;;5.67;5.17;;;19.90;18.80;;;;;;10394441;28;20234;-75
2022/04/21 15:24:28;;;;;;;5.93;5.33;;;19.90;18.80;;;;;;10385042;28;20237;-75
2022/04/21 15:29:31;;;;;;;6.17;5.57;;;19.90;18.60;;;;;;10384417;28;20709;-76
2022/04/21 15:34:34;;;;;;;5.10;4.70;;;19.80;18.50;;;;;;10388649;28;20237;-77
2022/04/21 15:39:40;;;;;;;5.00;4.60;;;19.80;18.70;;;;;;10389094;28;20230;-77
2022/04/21 15:44:43;;;;;;;5.00;4.60;;;19.70;18.70;;;;;;10382587;28;20233;-77
2022/04/21 15:49:46;;;;;;;5.07;4.53;;;19.70;18.70;;;;;;10382988;28;20245;-77
2022/04/21 16:00:12;;;;;;;5.57;5.17;;;19.60;19.00;;;;;;10383608;28;20230;-78
2022/04/21 16:05:23;;;;;;;5.43;5.03;;;19.50;19.00;;;;;;10382317;28;20322;-79
2022/04/21 16:10:27;;;;;;;5.40;4.90;;;19.40;19.10;;;;;;10377732;28;20241;-77
2022/04/21 16:15:31;;;;;;;5.17;4.73;;;19.30;19.10;;;;;;10387009;28;20248;-77
2022/04/21 16:20:34;;;;;;;5.10;4.80;;;19.20;19.20;;;;;;10386269;28;20222;-76
2022/04/21 16:25:39;;;;;;;6.03;5.00;;;19.20;19.40;;;;;;10382397;28;20237;-76
2022/04/21 16:30:43;;;;;;;5.57;5.17;;;19.20;19.30;;;;;;10383856;28;20225;-76
2022/04/21 16:35:47;;;;;;;4.63;4.33;;;19.20;19.30;;;;;;10382560;28;20309;-76
2022/04/21 16:40:51;;;;;;;5.47;5.07;;;19.20;19.40;;;;;;10383417;28;20240;-76
2022/04/21 16:45:55;;;;;;;6.00;5.40;;;19.20;19.40;;;;;;10384120;28;20232;-75
2022/04/21 16:50:58;;;;;;;5.53;5.13;;;19.10;19.40;;;;;;10383476;28;20265;-76
2022/04/21 16:56:03;;;;;;;4.67;4.27;;;19.00;19.30;;;;;;10378562;28;20225;-73
2022/04/21 17:06:31;;;;;;;4.60;4.30;;;19.00;19.80;;;;;;10377954;28;21765;-75
2022/04/21 17:11:36;;;;;;;4.27;3.90;;;19.00;19.70;;;;;;10378077;28;20222;-73
2022/04/21 17:16:39;;;;;;;4.40;4.10;;;19.00;19.70;;;;;;10375921;28;20744;-77
2022/04/21 17:21:42;;;;;;;4.70;4.30;;;19.00;19.80;;;;;;10373792;28;20229;-74
2022/04/21 17:26:47;;;;;;;4.00;3.70;;;19.00;19.80;;;;;;10375944;28;20705;-74
2022/04/21 17:31:50;;;;;;;4.20;3.80;;;18.90;19.80;;;;;;10384668;28;20244;-75
2022/04/21 17:36:53;;;;;;;5.70;3.83;;;18.80;19.80;;;;;;10380098;28;20640;-75
2022/04/21 17:41:58;;;;;;;4.17;3.80;;;18.80;19.80;;;;;;10372845;28;20226;-75
2022/04/21 17:47:02;;;;;;;3.90;3.60;;;18.70;19.90;;;;;;10378182;28;20233;-75
2022/04/21 17:52:06;;;;;;;4.07;3.73;;;18.60;19.90;;;;;;10374868;28;20222;-75
2022/04/21 17:57:11;;;;;;;4.30;3.37;;;18.60;19.90;;;;;;10372856;28;20259;-75
2022/04/21 18:02:14;;;;;;;3.73;3.43;;;18.50;20.00;;;;;;10376602;28;20576;-75
2022/04/21 18:07:19;;;;;;;4.00;3.70;;;18.40;20.00;;;;;;10376629;28;20248;-75
2022/04/21 18:12:24;;;;;;;3.83;3.53;;;18.30;20.10;;;;;;10379264;28;20248;-75
2022/04/21 18:17:27;;;;;;;3.97;3.63;;;18.20;20.20;;;;;;10373911;28;20266;-75
2022/04/21 18:22:31;;;;;;;4.13;3.83;;;18.10;20.10;;;;;;10377719;28;20714;-75
2022/04/21 18:27:35;;;;;;;3.53;3.33;;;18.00;20.20;;;;;;10382517;28;20232;-76
2022/04/21 18:32:40;;;;;;;3.70;3.40;;;17.80;20.20;;;;;;10383580;28;20236;-76
2022/04/21 18:37:44;;;;;;;6.00;3.50;;;17.70;20.90;;;;;;10382992;28;20255;-75
2022/04/21 18:42:55;;;;;;;3.47;3.17;;;17.50;20.30;;;;;;10381989;28;20233;-76
2022/04/21 18:47:58;;;;;;;3.40;3.20;;;17.40;20.50;;;;;;10380428;28;20234;-76
2022/04/21 18:53:01;;;;;;;3.03;2.83;;;17.30;20.40;;;;;;10390667;28;20756;-76
2022/04/21 18:58:25;;;;;;;3.60;3.30;;;17.20;20.60;;;;;;10382069;28;20878;-75
2022/04/21 19:03:28;;;;;;;4.40;3.20;;;17.10;20.80;;;;;;10373660;28;20230;-75
2022/04/21 19:13:54;;;;;;;3.40;3.00;;;16.90;20.70;;;;;;10376197;28;20747;-73
2022/04/21 19:18:58;;;;;;;3.30;3.00;;;16.70;20.90;;;;;;10377910;28;20260;-75
2022/04/21 19:24:01;;;;;;;2.80;2.60;;;16.60;20.90;;;;;;10374896;28;20232;-73
2022/04/21 19:29:09;;;;;;;3.10;2.80;;;16.60;21.00;;;;;;10370156;28;20236;-75
2022/04/21 19:34:13;;;;;;;2.87;2.67;;;16.50;21.20;;;;;;10379899;28;20226;-74
2022/04/21 19:39:17;;;;;;;2.97;2.77;;;16.40;21.20;;;;;;10383551;28;20305;-75
2022/04/21 19:44:21;;;;;;;2.97;2.77;;;16.30;21.10;;;;;;10391724;28;20226;-75
2022/04/21 19:49:25;;;;;;;2.33;2.23;;;16.20;21.40;;;;;;10388068;28;20230;-75
2022/04/21 19:54:28;;;;;;;2.47;2.27;;;16.20;21.40;;;;;;10382428;28;20730;-74
2022/04/21 19:59:33;;;;;;;2.80;2.60;;;16.10;21.40;;;;;;10381570;28;20303;-72
2022/04/21 20:04:37;;;;;;;3.10;2.90;;;16.00;21.60;;;;;;10379811;28;20317;-75
2022/04/21 20:09:40;;;;;;;3.17;2.90;;;16.00;21.60;;;;;;10390641;28;20313;-75
2022/04/21 20:14:46;;;;;;;3.00;2.80;;;15.90;21.70;;;;;;10382316;28;20225;-74
2022/04/21 20:30:34;;;;;;;3.83;2.90;;;15.70;21.70;;;;;;10382132;28;20221;-73
2022/04/21 20:35:38;;;;;;;3.50;3.30;;;15.60;22.30;;;;;;10373998;28;20225;-74
2022/04/21 20:40:41;;;;;;;3.10;2.83;;;15.50;21.80;;;;;;10372752;28;20253;-74
2022/04/21 20:45:46;;;;;;;2.97;2.77;;;15.40;21.90;;;;;;10371976;28;20277;-74
2022/04/21 20:50:50;;;;;;;3.50;3.20;;;15.30;22.10;;;;;;10378200;28;20225;-74
2022/04/21 20:55:53;;;;;;;3.10;2.90;;;15.20;22.10;;;;;;10370774;28;20236;-72
2022/04/21 21:00:58;;;;;;;3.80;3.27;;;15.10;22.00;;;;;;10368972;28;20244;-72
2022/04/21 21:06:02;;;;;;;4.00;3.70;;;15.00;21.90;;;;;;10368355;28;20336;-72
2022/04/21 21:11:05;;;;;;;4.10;3.80;;;14.90;21.90;;;;;;10371502;28;20218;-72
2022/04/21 21:16:10;;;;;;;3.70;3.40;;;14.80;21.80;;;;;;10376283;28;20783;-73
2022/04/21 21:21:18;;;;;;;3.77;3.47;;;14.60;22.30;;;;;;10370311;28;20301;-73
2022/04/21 21:26:22;;;;;;;3.60;3.40;;;14.60;22.30;;;;;;10375325;28;21895;-73
2022/04/21 21:31:27;;;;;;;3.80;3.50;;;14.50;22.40;;;;;;10373857;28;20625;-73
2022/04/21 21:36:31;;;;;;;3.50;3.30;;;14.40;22.70;;;;;;10376907;28;20233;-75
2022/04/21 21:41:34;;;;;;;4.10;3.73;;;14.30;22.50;;;;;;10381516;28;20234;-74
2022/04/21 21:46:39;;;;;;;3.53;3.33;;;14.20;22.50;;;;;;10390737;28;20652;-75
2022/04/21 21:57:04;;;;;;;4.07;3.77;;;14.10;22.70;;;;;;10381627;28;20242;-75
2022/04/21 22:02:08;;;;;;;4.30;3.90;;;14.00;22.70;;;;;;10377125;28;20396;-75
2022/04/21 22:07:12;;;;;;;5.40;3.70;;;13.80;23.10;;;;;;10382148;28;20736;-75
2022/04/21 22:12:15;;;;;;;4.27;3.97;;;13.80;22.90;;;;;;10377208;28;20226;-75
2022/04/21 22:17:20;;;;;;;3.90;3.60;;;13.70;23.10;;;;;;10379777;28;20320;-74
2022/04/21 22:22:23;;;;;;;3.87;3.57;;;13.60;23.40;;;;;;10382117;28;20268;-74
2022/04/21 22:27:26;;;;;;;5.23;4.20;;;13.50;23.20;;;;;;10381333;28;20251;-74
2022/04/21 22:32:31;;;;;;;4.33;4.03;;;13.50;23.30;;;;;;10374513;28;20717;-74
2022/04/21 22:37:34;;;;;;;4.40;4.10;;;13.40;23.70;;;;;;10378101;28;20662;-73
2022/04/21 22:42:39;;;;;;;4.80;4.40;;;13.30;23.60;;;;;;10378886;28;20234;-73
2022/04/21 22:47:44;;;;;;;4.77;4.43;;;13.30;23.80;;;;;;10380789;28;20287;-74
2022/04/21 22:52:48;;;;;;;5.07;4.57;;;13.20;24.20;;;;;;10382832;28;20234;-73
2022/04/21 22:57:51;;;;;;;5.07;4.67;;;13.10;24.00;;;;;;10383046;28;20320;-73
2022/04/21 23:02:56;;;;;;;5.43;4.93;;;13.10;24.00;;;;;;10384914;28;20257;-73
2022/04/21 23:07:59;;;;;;;5.37;4.90;;;13.10;24.30;;;;;;10374105;28;20226;-73
2022/04/21 23:18:25;;;;;;;5.53;5.03;;;13.00;24.20;;;;;;10383480;28;20599;-74
2022/04/21 23:23:29;;;;;;;6.00;5.40;;;12.90;24.50;;;;;;10386227;28;20596;-74
2022/04/21 23:28:32;;;;;;;5.80;5.30;;;12.90;24.40;;;;;;10385109;28;20848;-74
2022/04/21 23:33:37;;;;;;;5.90;5.40;;;12.80;24.40;;;;;;10390787;28;20228;-75
2022/04/21 23:38:40;;;;;;;5.97;5.37;;;12.70;24.50;;;;;;10384854;28;20229;-73
2022/04/21 23:43:43;;;;;;;6.37;5.87;;;12.70;24.60;;;;;;10392360;28;20232;-73
2022/04/21 23:48:48;;;;;;;6.70;6.10;;;12.60;24.70;;;;;;10387062;28;20230;-74
2022/04/21 23:53:51;;;;;;;6.67;5.97;;;12.50;25.10;;;;;;10393984;28;20249;-74
2022/04/21 23:58:55;;;;;;;6.83;6.23;;;12.50;24.80;;;;;;10388355;28;20230;-74
